Terminal Aerodrome Forecast
Issued by NWS

Home | Current Version | Previous Version | Text Only | Print | Product List | Glossary On
Versions: 1 2 3 4 5 6 7 8 9 10 11 12 13 14 15
000
FTUS43 KGRB 242344
TAFAUW
TAF
KAUW 242344Z 2500/2524 20010KT P6SM SCT050
     FM250100 17005KT P6SM SKC
     FM250400 16004KT P6SM SKC WS011/20030KT
     FM250900 15003KT P6SM SCT250
      TEMPO 2509/2513 5SM BR
     FM251300 17004KT P6SM SCT250
     FM251700 20008KT P6SM FEW050 BKN250 PROB30 2520/2524 3SM -TSRA
      BKN050CB=

USA.gov is the U.S. government's official web portal to all federal, state and local government web resources and services.